createdAt,value
2018-08-20T00:01:45.904Z,20.89
2018-08-20T00:04:50.962Z,20.97
2018-08-20T00:07:48.410Z,20.89
2018-08-20T00:10:46.190Z,20.87
2018-08-20T00:13:43.876Z,20.84
2018-08-20T00:16:41.727Z,20.81
2018-08-20T00:19:39.814Z,20.85
2018-08-20T00:22:37.672Z,20.82
2018-08-20T00:25:38.704Z,20.90
2018-08-20T00:28:36.507Z,20.82
2018-08-20T00:31:34.447Z,20.78
2018-08-20T00:34:32.333Z,20.72
2018-08-20T00:37:29.708Z,20.78
2018-08-20T00:40:28.816Z,20.76
2018-08-20T00:43:26.791Z,20.71
2018-08-20T00:46:24.036Z,20.77
2018-08-20T00:49:23.123Z,20.78
2018-08-20T00:52:21.008Z,20.75
2018-08-20T00:55:19.924Z,20.82
2018-08-20T00:58:17.678Z,20.77
2018-08-20T01:01:15.663Z,20.77
2018-08-20T01:04:13.503Z,20.78
2018-08-20T01:07:11.387Z,20.69
2018-08-20T01:10:08.981Z,20.73
2018-08-20T01:13:06.805Z,20.66
2018-08-20T01:16:04.817Z,20.68
2018-08-20T01:19:02.628Z,20.70
2018-08-20T01:22:00.342Z,20.77
2018-08-20T01:24:58.356Z,20.73
2018-08-20T01:27:57.444Z,20.68
2018-08-20T01:30:55.295Z,20.66
2018-08-20T01:33:52.675Z,20.67
2018-08-20T01:36:50.016Z,20.54
2018-08-20T01:39:48.150Z,20.58
2018-08-20T01:42:46.187Z,20.61
2018-08-20T01:45:44.072Z,20.67
2018-08-20T01:48:42.013Z,20.61
2018-08-20T01:51:40.091Z,20.58
2018-08-20T01:54:38.171Z,20.54
2018-08-20T01:57:36.036Z,20.55
2018-08-20T02:00:33.958Z,20.53
2018-08-20T02:03:31.965Z,20.49
2018-08-20T02:06:29.954Z,20.51
2018-08-20T02:09:28.834Z,20.49
2018-08-20T02:12:26.829Z,20.47
2018-08-20T02:15:25.872Z,20.52
2018-08-20T02:18:24.523Z,20.47
2018-08-20T02:21:22.574Z,20.43
2018-08-20T02:24:20.466Z,20.46
2018-08-20T02:27:18.430Z,20.45
2018-08-20T02:30:16.407Z,20.46
2018-08-20T02:33:14.147Z,20.36
2018-08-20T02:36:12.180Z,20.32
2018-08-20T02:39:10.003Z,20.34
2018-08-20T02:42:07.177Z,20.30
2018-08-20T02:45:05.417Z,20.27
2018-08-20T02:48:03.408Z,20.28
2018-08-20T02:51:01.287Z,20.32
2018-08-20T02:53:59.475Z,20.25
2018-08-20T02:56:57.221Z,20.19
2018-08-20T02:59:54.411Z,20.23
2018-08-20T03:02:51.742Z,20.26
2018-08-20T03:05:49.297Z,20.27
2018-08-20T03:08:46.603Z,20.21
2018-08-20T03:11:43.707Z,20.17
2018-08-20T03:14:41.236Z,20.13
2018-08-20T03:17:39.298Z,20.11
2018-08-20T03:20:37.568Z,20.12
2018-08-20T03:23:35.604Z,20.15
2018-08-20T03:26:33.311Z,20.11
2018-08-20T03:29:31.080Z,20.01
2018-08-20T03:32:29.041Z,20.09
2018-08-20T03:35:26.616Z,20.08
2018-08-20T03:38:24.491Z,20.11
2018-08-20T03:41:22.135Z,20.05
2018-08-20T03:44:20.073Z,20.01
2018-08-20T03:47:18.102Z,20.00
2018-08-20T03:50:15.893Z,20.07
2018-08-20T03:53:13.643Z,19.92
2018-08-20T03:56:11.693Z,19.88
2018-08-20T03:59:09.076Z,19.89
2018-08-20T04:02:08.972Z,19.95
2018-08-20T04:05:06.920Z,19.90
2018-08-20T04:08:04.868Z,19.85
2018-08-20T04:11:02.401Z,19.89
2018-08-20T04:14:00.087Z,19.88
2018-08-20T04:16:58.355Z,19.84
2018-08-20T04:19:55.672Z,19.88
2018-08-20T04:22:53.491Z,19.83
2018-08-20T04:25:50.627Z,19.80
2018-08-20T04:28:48.726Z,19.79
2018-08-20T04:31:46.687Z,19.77
2018-08-20T04:34:44.528Z,19.74
2018-08-20T04:37:42.235Z,19.79
2018-08-20T04:40:40.071Z,19.76
2018-08-20T04:43:37.942Z,19.76
2018-08-20T04:46:35.305Z,19.80
2018-08-20T04:49:33.430Z,19.74
2018-08-20T04:52:31.270Z,19.73
2018-08-20T04:55:29.356Z,19.71
2018-08-20T04:58:27.272Z,19.64
2018-08-20T05:01:24.535Z,19.72
2018-08-20T05:04:22.667Z,19.67
2018-08-20T05:07:20.556Z,19.67
2018-08-20T05:10:17.869Z,19.61
2018-08-20T05:13:15.503Z,19.70
2018-08-20T05:16:13.509Z,19.57
2018-08-20T05:19:11.395Z,19.62
2018-08-20T05:22:08.668Z,19.61
2018-08-20T05:25:06.375Z,19.57
2018-08-20T05:28:04.343Z,19.74
2018-08-20T05:31:02.126Z,19.71
2018-08-20T05:33:59.324Z,19.79
2018-08-20T05:36:57.446Z,19.80
2018-08-20T05:39:55.353Z,19.85
2018-08-20T05:42:52.776Z,19.90
2018-08-20T05:45:51.716Z,19.86
2018-08-20T05:48:49.601Z,19.90
2018-08-20T05:51:47.367Z,19.91
2018-08-20T05:54:45.344Z,20.00
2018-08-20T05:57:43.423Z,19.98
2018-08-20T06:00:40.669Z,19.96
2018-08-20T06:03:37.923Z,20.00
2018-08-20T06:06:35.284Z,20.07
2018-08-20T06:09:32.623Z,20.00
2018-08-20T06:12:30.660Z,20.20
2018-08-20T06:15:29.844Z,20.26
2018-08-20T06:18:27.927Z,20.28
2018-08-20T06:21:25.721Z,20.24
2018-08-20T06:24:23.560Z,20.24
2018-08-20T06:27:21.563Z,20.25
2018-08-20T06:30:18.928Z,20.23
2018-08-20T06:33:16.070Z,20.21
2018-08-20T06:36:14.203Z,20.31
2018-08-20T06:39:12.388Z,20.31
2018-08-20T06:42:10.297Z,20.28
2018-08-20T06:45:07.424Z,20.27
2018-08-20T06:48:04.664Z,20.16
2018-08-20T06:51:01.804Z,20.30
2018-08-20T06:53:59.743Z,20.17
2018-08-20T06:56:57.100Z,20.27
2018-08-20T06:59:55.252Z,20.27
2018-08-20T07:02:53.144Z,20.30
2018-08-20T07:05:50.472Z,20.37
2018-08-20T07:08:48.475Z,20.38
2018-08-20T07:11:46.486Z,20.51
2018-08-20T07:14:44.086Z,20.74
2018-08-20T07:17:42.118Z,20.75
2018-08-20T07:20:39.508Z,20.81
2018-08-20T07:23:37.749Z,20.79
2018-08-20T07:26:35.480Z,21.08
2018-08-20T07:29:43.574Z,21.18
2018-08-20T07:32:41.022Z,21.05
2018-08-20T07:35:39.012Z,21.07
2018-08-20T07:38:36.008Z,21.18
2018-08-20T07:41:33.972Z,21.22
2018-08-20T07:44:31.748Z,21.24
2018-08-20T07:47:29.543Z,21.33
2018-08-20T07:50:27.412Z,21.36
2018-08-20T07:53:25.159Z,21.36
2018-08-20T07:56:23.202Z,21.49
2018-08-20T07:59:22.347Z,21.41
2018-08-20T08:02:20.280Z,21.72
2018-08-20T08:05:19.398Z,21.87
2018-08-20T08:08:17.461Z,21.96
2018-08-20T08:11:14.736Z,21.97
2018-08-20T08:14:13.789Z,22.01
2018-08-20T08:17:11.183Z,22.13
2018-08-20T08:20:09.143Z,21.97
2018-08-20T08:23:07.175Z,22.08
2018-08-20T08:26:05.127Z,22.34
2018-08-20T08:29:03.356Z,22.59
2018-08-20T08:32:00.356Z,22.55
2018-08-20T08:34:58.105Z,22.63
2018-08-20T08:37:57.236Z,22.91
2018-08-20T08:40:54.450Z,23.38
2018-08-20T08:43:52.249Z,23.84
2018-08-20T08:46:49.756Z,23.90
2018-08-20T08:49:46.983Z,23.83
2018-08-20T08:52:44.434Z,23.89
2018-08-20T08:55:42.399Z,24.14
2018-08-20T08:58:40.568Z,24.09
2018-08-20T09:01:38.545Z,23.93
2018-08-20T09:04:36.532Z,23.60
2018-08-20T09:07:34.463Z,23.15
2018-08-20T09:10:31.589Z,23.01
2018-08-20T09:13:28.671Z,23.09
2018-08-20T09:16:25.770Z,22.97
2018-08-20T09:19:23.001Z,22.91
2018-08-20T09:22:20.880Z,22.96
2018-08-20T09:25:19.704Z,22.93
2018-08-20T09:28:17.728Z,22.99
2018-08-20T09:31:14.731Z,23.03
2018-08-20T09:34:12.075Z,23.18
2018-08-20T09:37:09.785Z,23.11
2018-08-20T09:40:07.119Z,22.93
2018-08-20T09:43:04.990Z,22.59
2018-08-20T09:46:02.212Z,22.46
2018-08-20T09:48:59.295Z,22.27
2018-08-20T09:51:56.537Z,22.23
2018-08-20T09:54:54.692Z,22.15
2018-08-20T09:57:52.495Z,22.17
2018-08-20T10:00:50.371Z,22.17
2018-08-20T10:03:51.436Z,22.09
2018-08-20T10:06:49.686Z,21.89
2018-08-20T10:09:47.717Z,21.80
2018-08-20T10:12:45.419Z,21.77
2018-08-20T10:15:43.509Z,21.77
2018-08-20T10:18:41.280Z,21.66
2018-08-20T10:21:39.352Z,21.73
2018-08-20T10:24:37.558Z,21.64
2018-08-20T10:27:34.776Z,21.71
2018-08-20T10:30:33.771Z,21.80
2018-08-20T10:33:30.913Z,21.89
2018-08-20T10:36:28.944Z,21.59
2018-08-20T10:39:27.899Z,21.42
2018-08-20T10:42:25.792Z,21.19
2018-08-20T10:45:25.665Z,21.22
2018-08-20T10:48:23.964Z,21.38
2018-08-20T10:51:21.830Z,21.37
2018-08-20T10:54:18.945Z,21.56
2018-08-20T10:57:16.799Z,21.76
2018-08-20T11:00:14.763Z,21.95
2018-08-20T11:03:12.751Z,21.93
2018-08-20T11:06:10.077Z,22.36
2018-08-20T11:09:08.052Z,22.34
2018-08-20T11:12:07.020Z,22.78
2018-08-20T11:15:04.985Z,23.03
2018-08-20T11:18:02.924Z,23.01
2018-08-20T11:21:00.841Z,23.14
2018-08-20T11:23:58.943Z,23.20
2018-08-20T11:26:57.525Z,23.49
2018-08-20T11:29:55.544Z,23.43
2018-08-20T11:32:53.422Z,23.41
2018-08-20T11:35:51.433Z,23.24
2018-08-20T11:38:48.640Z,23.12
2018-08-20T11:41:46.755Z,23.08
2018-08-20T11:44:44.814Z,23.09
2018-08-20T11:47:42.894Z,23.25
2018-08-20T11:50:40.712Z,23.56
2018-08-20T11:53:38.593Z,23.67
2018-08-20T11:56:36.449Z,23.80
2018-08-20T11:59:33.927Z,23.83
2018-08-20T12:02:32.000Z,23.82
2018-08-20T12:05:29.331Z,24.00
2018-08-20T12:08:27.508Z,23.97
2018-08-20T12:11:25.572Z,23.53
2018-08-20T12:14:23.480Z,23.68
2018-08-20T12:17:21.438Z,23.54
2018-08-20T12:20:19.920Z,23.38
2018-08-20T12:23:18.108Z,23.44
2018-08-20T12:26:15.286Z,23.44
2018-08-20T12:29:13.221Z,23.76
2018-08-20T12:32:11.135Z,23.73
2018-08-20T12:35:08.479Z,23.92
2018-08-20T12:38:06.469Z,24.01
2018-08-20T12:41:04.433Z,24.47
2018-08-20T12:44:02.331Z,25.16
2018-08-20T12:47:00.311Z,24.91
2018-08-20T12:49:58.564Z,24.82
2018-08-20T12:52:56.217Z,25.16
2018-08-20T12:55:54.376Z,25.19
2018-08-20T12:58:56.614Z,24.85
2018-08-20T13:01:54.732Z,24.73
2018-08-20T13:04:52.731Z,24.18
2018-08-20T13:07:50.790Z,24.24
2018-08-20T13:10:48.843Z,24.43
2018-08-20T13:13:46.835Z,24.65
2018-08-20T13:16:44.610Z,24.78
2018-08-20T13:19:42.549Z,24.72
2018-08-20T13:22:40.575Z,24.45
2018-08-20T13:25:37.926Z,24.40
2018-08-20T13:28:35.714Z,24.50
2018-08-20T13:31:33.640Z,24.46
2018-08-20T13:34:31.474Z,24.43
2018-08-20T13:37:29.330Z,24.33
2018-08-20T13:40:26.665Z,24.20
2018-08-20T13:43:24.476Z,24.23
2018-08-20T13:46:22.477Z,24.51
2018-08-20T13:49:20.276Z,24.94
2018-08-20T13:52:18.380Z,25.12
2018-08-20T13:55:16.346Z,25.33
2018-08-20T13:58:13.827Z,25.28
2018-08-20T14:01:11.281Z,25.20
2018-08-20T14:04:08.263Z,25.09
2018-08-20T14:07:05.980Z,24.90
2018-08-20T14:10:03.150Z,24.90
2018-08-20T14:13:01.093Z,24.89
2018-08-20T14:15:58.417Z,24.52
2018-08-20T14:18:56.419Z,24.72
2018-08-20T14:21:54.020Z,24.86
2018-08-20T14:24:51.873Z,24.75
2018-08-20T14:27:49.662Z,24.60
2018-08-20T14:30:47.449Z,24.87
2018-08-20T14:33:45.396Z,24.86
2018-08-20T14:36:42.822Z,25.03
2018-08-20T14:39:40.668Z,25.07
2018-08-20T14:42:38.697Z,25.10
2018-08-20T14:45:42.917Z,25.05
2018-08-20T14:48:41.134Z,25.02
2018-08-20T14:51:39.023Z,25.02
2018-08-20T14:54:36.969Z,24.98
2018-08-20T14:57:34.501Z,25.01
2018-08-20T15:00:33.721Z,25.16
2018-08-20T15:03:31.665Z,25.20
2018-08-20T15:06:29.699Z,25.36
2018-08-20T15:09:28.831Z,25.57
2018-08-20T15:12:26.658Z,25.61
2018-08-20T15:15:24.745Z,25.61
2018-08-20T15:18:21.772Z,25.49
2018-08-20T15:21:19.800Z,25.44
2018-08-20T15:24:16.986Z,25.26
2018-08-20T15:27:14.351Z,24.96
2018-08-20T15:30:11.478Z,24.73
2018-08-20T15:33:08.759Z,24.76
2018-08-20T15:36:06.614Z,24.70
2018-08-20T15:39:04.608Z,24.61
2018-08-20T15:42:02.575Z,24.47
2018-08-20T15:45:00.702Z,24.46
2018-08-20T15:47:58.785Z,24.49
2018-08-20T15:50:56.967Z,24.38
2018-08-20T15:53:55.813Z,24.10
2018-08-20T15:56:53.756Z,24.03
2018-08-20T15:59:50.816Z,23.90
2018-08-20T16:02:47.918Z,23.75
2018-08-20T16:05:45.998Z,23.74
2018-08-20T16:08:43.871Z,23.61
2018-08-20T16:11:50.016Z,23.41
2018-08-20T16:14:47.244Z,23.38
2018-08-20T16:17:45.530Z,23.35
2018-08-20T16:20:43.252Z,23.43
2018-08-20T16:23:42.093Z,23.47
2018-08-20T16:26:39.996Z,23.41
2018-08-20T16:29:38.115Z,23.42
2018-08-20T16:32:36.005Z,23.35
2018-08-20T16:35:34.329Z,23.28
2018-08-20T16:38:32.258Z,23.18
2018-08-20T16:41:30.289Z,23.19
2018-08-20T16:44:28.173Z,23.15
2018-08-20T16:47:26.105Z,23.14
2018-08-20T16:50:25.003Z,23.13
2018-08-20T16:53:22.942Z,23.11
2018-08-20T16:56:21.040Z,23.19
2018-08-20T16:59:19.035Z,23.26
2018-08-20T17:02:18.035Z,23.31
2018-08-20T17:05:16.049Z,23.44
2018-08-20T17:08:13.963Z,23.39
2018-08-20T17:11:11.441Z,23.47
2018-08-20T17:14:09.541Z,23.35
2018-08-20T17:17:07.711Z,23.28
2018-08-20T17:20:05.775Z,23.20
2018-08-20T17:23:03.857Z,23.07
2018-08-20T17:26:01.561Z,23.03
2018-08-20T17:28:59.563Z,23.07
2018-08-20T17:31:57.372Z,22.90
2018-08-20T17:34:55.277Z,22.73
2018-08-20T17:37:53.079Z,22.59
2018-08-20T17:40:55.361Z,22.52
2018-08-20T17:43:53.169Z,22.45
2018-08-20T17:46:51.312Z,22.42
2018-08-20T17:49:49.348Z,22.44
2018-08-20T17:52:53.469Z,22.43
2018-08-20T17:55:51.174Z,22.25
2018-08-20T17:58:48.957Z,22.17
2018-08-20T18:01:48.894Z,22.27
2018-08-20T18:04:47.091Z,22.24
2018-08-20T18:07:44.908Z,22.14
2018-08-20T18:10:42.069Z,22.00
2018-08-20T18:13:54.526Z,22.00
2018-08-20T18:16:52.567Z,21.87
2018-08-20T18:19:50.220Z,21.88
2018-08-20T18:22:48.155Z,21.91
2018-08-20T18:25:49.281Z,21.81
2018-08-20T18:29:00.531Z,21.80
2018-08-20T18:31:57.591Z,21.75
2018-08-20T18:34:55.479Z,21.73
2018-08-20T18:37:58.291Z,21.65
2018-08-20T18:40:56.216Z,21.45
2018-08-20T18:43:54.124Z,21.42
2018-08-20T18:46:51.926Z,21.34
2018-08-20T18:50:02.955Z,21.36
2018-08-20T18:53:00.913Z,21.34
2018-08-20T18:56:05.140Z,21.31
2018-08-20T18:59:03.309Z,21.22
2018-08-20T19:02:01.272Z,21.20
2018-08-20T19:04:59.071Z,21.26
2018-08-20T19:07:57.139Z,21.18
2018-08-20T19:10:55.330Z,21.16
2018-08-20T19:13:52.580Z,21.19
2018-08-20T19:16:51.599Z,21.11
2018-08-20T19:19:54.657Z,21.05
2018-08-20T19:22:52.693Z,20.93
2018-08-20T19:25:50.848Z,20.91
2018-08-20T19:28:49.038Z,20.83
2018-08-20T19:31:47.054Z,20.92
2018-08-20T19:34:44.777Z,20.93
2018-08-20T19:37:42.104Z,20.89
2018-08-20T19:40:40.157Z,20.92
2018-08-20T19:44:10.644Z,20.89
2018-08-20T19:47:09.623Z,20.86
2018-08-20T19:50:07.439Z,20.80
2018-08-20T19:53:05.320Z,20.68
2018-08-20T19:56:03.038Z,20.76
2018-08-20T19:59:00.967Z,20.74
2018-08-20T20:01:58.974Z,20.72
2018-08-20T20:04:56.129Z,20.78
2018-08-20T20:07:59.139Z,20.82
2018-08-20T20:10:57.087Z,20.82
2018-08-20T20:13:55.994Z,20.79
2018-08-20T20:17:00.256Z,20.74
2018-08-20T20:19:58.305Z,20.69
2018-08-20T20:22:56.237Z,20.61
2018-08-20T20:25:54.275Z,20.52
2018-08-20T20:28:51.977Z,20.55
2018-08-20T20:31:49.858Z,20.47
2018-08-20T20:34:47.973Z,20.52
2018-08-20T20:37:46.111Z,20.41
2018-08-20T20:40:44.098Z,20.53
2018-08-20T20:43:45.144Z,20.41
2018-08-20T20:46:43.131Z,20.43
2018-08-20T20:49:40.584Z,20.44
2018-08-20T20:52:38.835Z,20.44
2018-08-20T20:55:36.527Z,20.53
2018-08-20T20:58:40.680Z,20.61
2018-08-20T21:01:38.773Z,20.45
2018-08-20T21:04:36.954Z,20.44
2018-08-20T21:07:39.893Z,20.45
2018-08-20T21:10:51.163Z,20.44
2018-08-20T21:13:49.990Z,20.30
2018-08-20T21:16:48.121Z,20.32
2018-08-20T21:19:48.162Z,20.37
2018-08-20T21:22:46.108Z,20.32
2018-08-20T21:25:44.231Z,20.34
2018-08-20T21:28:46.279Z,20.31
2018-08-20T21:31:59.478Z,20.27
2018-08-20T21:34:57.109Z,20.28
2018-08-20T21:37:54.367Z,20.24
2018-08-20T21:40:52.306Z,20.12
2018-08-20T21:43:53.474Z,20.19
2018-08-20T21:46:51.436Z,20.17
2018-08-20T21:49:49.251Z,20.11
2018-08-20T21:52:46.580Z,20.12
2018-08-20T21:55:44.528Z,20.09
2018-08-20T21:58:42.635Z,20.07
2018-08-20T22:01:40.603Z,20.01
2018-08-20T22:04:37.890Z,19.95
2018-08-20T22:07:35.007Z,19.98
2018-08-20T22:10:34.213Z,19.91
2018-08-20T22:13:32.014Z,19.86
2018-08-20T22:16:36.198Z,19.76
2018-08-20T22:19:34.181Z,19.61
2018-08-20T22:22:35.287Z,19.61
2018-08-20T22:25:34.456Z,19.56
2018-08-20T22:28:32.688Z,19.49
2018-08-20T22:31:30.557Z,19.42
2018-08-20T22:34:28.507Z,19.40
2018-08-20T22:37:26.436Z,19.33
2018-08-20T22:40:24.303Z,19.38
2018-08-20T22:43:22.259Z,19.27
2018-08-20T22:46:19.734Z,19.06
2018-08-20T22:49:17.620Z,18.97
2018-08-20T22:52:15.588Z,18.87
2018-08-20T22:55:13.359Z,18.91
2018-08-20T22:58:21.437Z,19.06
2018-08-20T23:01:18.628Z,19.03
2018-08-20T23:04:15.788Z,19.12
2018-08-20T23:07:17.974Z,19.14
2018-08-20T23:10:15.873Z,19.13
2018-08-20T23:13:13.845Z,19.05
2018-08-20T23:16:11.860Z,19.01
2018-08-20T23:19:10.995Z,18.94
2018-08-20T23:22:08.947Z,18.85
2018-08-20T23:25:07.045Z,18.85
2018-08-20T23:28:04.228Z,18.93
2018-08-20T23:31:09.229Z,19.16
2018-08-20T23:34:07.200Z,19.12
2018-08-20T23:37:05.320Z,19.11
2018-08-20T23:40:03.042Z,19.06
2018-08-20T23:43:00.758Z,19.08
2018-08-20T23:45:58.606Z,19.00
2018-08-20T23:48:56.529Z,18.79
2018-08-20T23:51:54.476Z,18.82
2018-08-20T23:54:52.186Z,18.92
2018-08-20T23:57:49.323Z,18.94
